^^
Données historiques de Météo Turbie
 
Daily Summary for December 16, 2017 Units:  Metric    English   Both
« Previous Day
Next Day »
Daily Weekly Monthly Yearly Custom
  Current: High: Low: Average:
Temperature: 9.8 °C 9.8 °C 4.1 °C 5.3 °C
Dew Point: -3.5 °C -2.9 °C -6.6 °C -5.1 °C
Humidity: 39% 54% 36% 47%
Wind Speed: 18.5km/h 51.8km/h 11.1km/h 27.7km/h
Wind Gust: 18.5km/h 51.8km/h - -
WindWNW - - WNW
Pressure: 1007.3 hPa 1007.7 hPa 1000.2 hPa -
Precipitation: 0 mm      
Historical Graphs
 
 
Tabular Data for December 16, 2017
Time Temperature Dew Point Pressure Wind Wind Speed Wind Gust Humidity Rainfall Rate (Hourly) solar Conditions
00:00 5.1 °C -5.1 °C 1000.9 hPa NW 42.6 km/h 42.6 km/h 48% 0 mm 0.0 W/m2 FEW
00:05 5 °C -4.8 °C 1001.2 hPa West 40.7 km/h 40.7 km/h 49% 0 mm 0.0 W/m2 FEW
00:09 4.9 °C -4.9 °C 1000.9 hPa West 42.6 km/h 42.6 km/h 49% 0 mm 0.0 W/m2 FEW
00:10 4.9 °C -4.7 °C 1000.9 hPa West 42.6 km/h 42.6 km/h 50% 0 mm 0.0 W/m2 FEW
00:11 4.8 °C -4.7 °C 1000.9 hPa WNW 42.6 km/h 42.6 km/h 50% 0 mm 0.0 W/m2 FEW
00:15 4.7 °C -4.8 °C 1000.6 hPa West 46.3 km/h 46.3 km/h 50% 0 mm 0.0 W/m2 FEW
00:17 4.7 °C -4.6 °C 1000.9 hPa West 46.3 km/h 46.3 km/h 51% 0 mm 0.0 W/m2 FEW
00:21 4.6 °C -4.7 °C 1000.6 hPa West 46.3 km/h 46.3 km/h 51% 0 mm 0.0 W/m2 FEW
00:26 4.6 °C -4.7 °C 1000.9 hPa WNW 50 km/h 50 km/h 51% 0 mm 0.0 W/m2 FEW
00:27 4.6 °C -4.7 °C 1000.9 hPa West 50 km/h 50 km/h 51% 0 mm 0.0 W/m2 FEW
00:32 4.6 °C -4.4 °C 1000.6 hPa WNW 51.8 km/h 51.8 km/h 52% 0 mm 0.0 W/m2 FEW
00:37 4.5 °C -4.5 °C 1000.6 hPa West 51.8 km/h 51.8 km/h 52% 0 mm 0.0 W/m2 FEW
00:41 4.4 °C -4.4 °C 1000.2 hPa West 51.8 km/h 51.8 km/h 53% 0 mm 0.0 W/m2 FEW
00:43 4.4 °C -4.4 °C 1000.2 hPa WNW 42.6 km/h 42.6 km/h 53% 0 mm 0.0 W/m2 FEW
00:45 4.3 °C -4.2 °C 1000.2 hPa WNW 42.6 km/h 42.6 km/h 54% 0 mm 0.0 W/m2 FEW
00:50 4.2 °C -4.3 °C 1000.2 hPa West 42.6 km/h 42.6 km/h 54% 0 mm 0.0 W/m2 FEW
00:53 4.1 °C -4.4 °C 1000.6 hPa West 42.6 km/h 42.6 km/h 54% 0 mm 0.0 W/m2 FEW
00:58 4.1 °C -4.6 °C 1000.2 hPa West 42.6 km/h 42.6 km/h 53% 0 mm 0.0 W/m2 FEW
01:03 4.2 °C -4.6 °C 1000.6 hPa West 40.7 km/h 40.7 km/h 53% 0 mm 0.0 W/m2 FEW
01:05 4.2 °C -4.6 °C 1000.6 hPa West 40.7 km/h 40.7 km/h 53% 0 mm 0.0 W/m2 FEW
01:10 4.2 °C -4.5 °C 1000.2 hPa WNW 48.1 km/h 48.1 km/h 53% 0 mm 0.0 W/m2 FEW
01:11 4.2 °C -4.5 °C 1000.6 hPa WNW 48.1 km/h 48.1 km/h 53% 0 mm 0.0 W/m2 FEW
01:16 4.3 °C -4.7 °C 1000.2 hPa West 48.1 km/h 48.1 km/h 52% 0 mm 0.0 W/m2 FEW
01:19 4.3 °C -4.7 °C 1000.6 hPa West 48.1 km/h 48.1 km/h 52% 0 mm 0.0 W/m2 FEW
01:25 4.3 °C -4.7 °C 1000.6 hPa WNW 40.7 km/h 40.7 km/h 52% 0 mm 0.0 W/m2 FEW
01:30 4.4 °C -4.6 °C 1000.9 hPa West 38.9 km/h 38.9 km/h 52% 0 mm 0.0 W/m2 FEW
01:31 4.4 °C -4.6 °C 1000.6 hPa West 38.9 km/h 38.9 km/h 52% 0 mm 0.0 W/m2 FEW
01:36 4.4 °C -4.4 °C 1000.9 hPa WSW 38.9 km/h 38.9 km/h 53% 0 mm 0.0 W/m2 FEW
01:37 4.4 °C -4.4 °C 1000.9 hPa WNW 33.3 km/h 33.3 km/h 53% 0 mm 0.0 W/m2 FEW
01:42 4.3 °C -4.4 °C 1000.9 hPa WSW 33.3 km/h 33.3 km/h 53% 0 mm 0.0 W/m2 FEW
01:43 4.3 °C -4.4 °C 1000.9 hPa WNW 33.3 km/h 33.3 km/h 53% 0 mm 0.0 W/m2 FEW
01:48 4.3 °C -4.2 °C 1000.6 hPa WNW 33.3 km/h 33.3 km/h 54% 0 mm 0.0 W/m2 FEW
01:53 4.3 °C -4.2 °C 1000.9 hPa WNW 37 km/h 37 km/h 54% 0 mm 0.0 W/m2 FEW
01:58 4.4 °C -4.1 °C 1000.6 hPa West 42.6 km/h 42.6 km/h 54% 0 mm 0.0 W/m2 FEW
02:00 4.4 °C -4.1 °C 1000.6 hPa WNW 42.6 km/h 42.6 km/h 54% 0 mm 0.0 W/m2 FEW
02:05 4.4 °C -4.1 °C 1000.6 hPa West 42.6 km/h 42.6 km/h 54% 0 mm 0.0 W/m2 FEW
02:08 4.5 °C -4 °C 1000.6 hPa WNW 42.6 km/h 42.6 km/h 54% 0 mm 0.0 W/m2 FEW
02:13 4.5 °C -4 °C 1000.6 hPa WSW 42.6 km/h 42.6 km/h 54% 0 mm 0.0 W/m2 FEW
02:19 4.6 °C -4.2 °C 1000.6 hPa West 48.1 km/h 48.1 km/h 53% 0 mm 0.0 W/m2 FEW
02:24 4.6 °C -4.2 °C 1000.6 hPa West 48.1 km/h 48.1 km/h 53% 0 mm 0.0 W/m2 FEW
02:29 4.7 °C -4.1 °C 1000.9 hPa West 48.1 km/h 48.1 km/h 53% 0 mm 0.0 W/m2 FEW
02:34 4.7 °C -4.1 °C 1000.9 hPa West 46.3 km/h 46.3 km/h 53% 0 mm 0.0 W/m2 FEW
02:37 4.7 °C -4.1 °C 1000.9 hPa NW 42.6 km/h 42.6 km/h 53% 0 mm 0.0 W/m2 FEW
02:42 4.7 °C -4.1 °C 1000.9 hPa West 42.6 km/h 42.6 km/h 53% 0 mm 0.0 W/m2 FEW
02:48 4.7 °C -4.1 °C 1000.9 hPa WNW 38.9 km/h 38.9 km/h 53% 0 mm 0.0 W/m2 FEW
02:52 4.7 °C -4.1 °C 1000.9 hPa WNW 40.7 km/h 40.7 km/h 53% 0 mm 0.0 W/m2 FEW
02:57 4.7 °C -4.1 °C 1000.9 hPa WNW 42.6 km/h 42.6 km/h 53% 0 mm 0.0 W/m2 FEW
03:00 4.7 °C -4.1 °C 1000.9 hPa West 42.6 km/h 42.6 km/h 53% 0 mm 0.0 W/m2 FEW
03:06 4.7 °C -4.1 °C 1000.9 hPa West 42.6 km/h 42.6 km/h 53% 0 mm 0.0 W/m2 FEW
03:07 4.7 °C -4.1 °C 1000.9 hPa WNW 42.6 km/h 42.6 km/h 53% 0 mm 0.0 W/m2 FEW
03:12 4.7 °C -4.1 °C 1000.9 hPa West 37 km/h 37 km/h 53% 0 mm 0.0 W/m2 FEW
03:17 4.7 °C -4.1 °C 1000.9 hPa West 37 km/h 37 km/h 53% 0 mm 0.0 W/m2 FEW
03:19 4.7 °C -4.1 °C 1000.9 hPa West 37 km/h 37 km/h 53% 0 mm 0.0 W/m2 FEW
03:22 4.6 °C -3.9 °C 1000.9 hPa West 37 km/h 37 km/h 54% 0 mm 0.0 W/m2 FEW
03:27 4.6 °C -4.2 °C 1000.6 hPa West 35.2 km/h 35.2 km/h 53% 0 mm 0.0 W/m2 FEW
03:28 4.6 °C -3.9 °C 1000.6 hPa WNW 35.2 km/h 35.2 km/h 54% 0 mm 0.0 W/m2 FEW
03:31 4.5 °C -4 °C 1000.9 hPa WNW 33.3 km/h 33.3 km/h 54% 0 mm 0.0 W/m2 FEW
03:33 4.4 °C -4.1 °C 1000.9 hPa WNW 33.3 km/h 33.3 km/h 54% 0 mm 0.0 W/m2 FEW
03:38 4.4 °C -4.1 °C 1000.9 hPa WNW 33.3 km/h 33.3 km/h 54% 0 mm 0.0 W/m2 FEW
03:43 4.4 °C -4.1 °C 1000.9 hPa West 38.9 km/h 38.9 km/h 54% 0 mm 0.0 W/m2 FEW
03:49 4.4 °C -4.3 °C 1000.6 hPa West 38.9 km/h 38.9 km/h 53% 0 mm 0.0 W/m2 FEW
03:52 4.4 °C -4.1 °C 1000.9 hPa WNW 35.2 km/h 35.2 km/h 54% 0 mm 0.0 W/m2 FEW
03:57 4.4 °C -4.3 °C 1000.9 hPa WNW 35.2 km/h 35.2 km/h 53% 0 mm 0.0 W/m2 FEW
04:02 4.4 °C -4.6 °C 1001.2 hPa NW 35.2 km/h 35.2 km/h 52% 0 mm 0.0 W/m2 FEW
04:03 4.4 °C -4.6 °C 1001.2 hPa WNW 35.2 km/h 35.2 km/h 52% 0 mm 0.0 W/m2 FEW
04:14 4.6 °C -4.7 °C 1001.6 hPa NW 20.4 km/h 20.4 km/h 51% 0 mm 0.0 W/m2 FEW
04:19 4.7 °C -4.9 °C 1001.6 hPa NNE 20.4 km/h 20.4 km/h 50% 0 mm 0.0 W/m2 FEW
04:24 4.8 °C -4.8 °C 1001.6 hPa NW 20.4 km/h 20.4 km/h 50% 0 mm 0.0 W/m2 FEW
04:25 4.8 °C -4.8 °C 1001.6 hPa WNW 22.2 km/h 22.2 km/h 50% 0 mm 0.0 W/m2 FEW
04:30 4.8 °C -5 °C 1001.6 hPa West 22.2 km/h 22.2 km/h 49% 0 mm 0.0 W/m2 FEW
04:31 4.9 °C -4.9 °C 1001.6 hPa WNW 22.2 km/h 22.2 km/h 49% 0 mm 0.0 W/m2 FEW
04:37 4.9 °C -4.7 °C 1001.6 hPa WNW 22.2 km/h 22.2 km/h 50% 0 mm 0.0 W/m2 FEW
04:41 4.8 °C -4.7 °C 1001.6 hPa WNW 18.5 km/h 18.5 km/h 50% 0 mm 0.0 W/m2 FEW
04:46 4.7 °C -4.6 °C 1001.6 hPa WNW 22.2 km/h 22.2 km/h 51% 0 mm 0.0 W/m2 FEW
04:47 4.7 °C -4.6 °C 1001.6 hPa NW 22.2 km/h 22.2 km/h 51% 0 mm 0.0 W/m2 FEW
04:52 4.6 °C -4.9 °C 1001.6 hPa WNW 22.2 km/h 22.2 km/h 50% 0 mm 0.0 W/m2 FEW
04:57 4.6 °C -5.3 °C 1001.6 hPa West 18.5 km/h 18.5 km/h 49% 0 mm 0.0 W/m2 FEW
05:02 4.7 °C -5.2 °C 1001.9 hPa WNW 24.1 km/h 24.1 km/h 49% 0 mm 0.0 W/m2 FEW
05:03 4.7 °C -5.1 °C 1001.9 hPa NW 24.1 km/h 24.1 km/h 49% 0 mm 0.0 W/m2 FEW
05:07 4.8 °C -5.3 °C 1001.9 hPa NNW 24.1 km/h 24.1 km/h 48% 0 mm 0.0 W/m2 FEW
05:12 4.9 °C -5.2 °C 1001.9 hPa NNW 24.1 km/h 24.1 km/h 48% 0 mm 0.0 W/m2 FEW
05:17 4.9 °C -5.2 °C 1001.9 hPa NNW 22.2 km/h 22.2 km/h 48% 0 mm 0.0 W/m2 FEW
05:20 4.9 °C -5.2 °C 1001.6 hPa NW 22.2 km/h 22.2 km/h 48% 0 mm 0.0 W/m2 FEW
05:24 4.9 °C -5.2 °C 1001.6 hPa WNW 22.2 km/h 22.2 km/h 48% 0 mm 0.0 W/m2 FEW
05:27 4.9 °C -5.4 °C 1001.9 hPa West 25.9 km/h 25.9 km/h 47% 0 mm 0.0 W/m2 FEW
05:30 4.9 °C -5.4 °C 1001.6 hPa WNW 25.9 km/h 25.9 km/h 47% 0 mm 0.0 W/m2 FEW
05:35 4.9 °C -5.4 °C 1001.9 hPa West 25.9 km/h 25.9 km/h 47% 0 mm 0.0 W/m2 FEW
05:36 4.9 °C -5.4 °C 1001.9 hPa WNW 25.9 km/h 25.9 km/h 47% 0 mm 0.0 W/m2 FEW
05:41 4.9 °C -5.5 °C 1001.9 hPa West 18.5 km/h 18.5 km/h 47% 0 mm 0.0 W/m2 FEW
05:44 4.9 °C -5.5 °C 1001.9 hPa WNW 22.2 km/h 22.2 km/h 47% 0 mm 0.0 W/m2 FEW
05:49 4.8 °C -5.6 °C 1001.9 hPa West 22.2 km/h 22.2 km/h 47% 0 mm 0.0 W/m2 FEW
05:57 4.7 °C -5.4 °C 1001.9 hPa WNW 18.5 km/h 18.5 km/h 48% 0 mm 0.0 W/m2 FEW
06:03 4.6 °C -5.5 °C 1002.3 hPa NW 20.4 km/h 20.4 km/h 48% 0 mm 0.0 W/m2 FEW
06:06 4.6 °C -5.5 °C 1002.3 hPa WNW 20.4 km/h 20.4 km/h 48% 0 mm 0.0 W/m2 FEW
06:10 4.7 °C -5.4 °C 1002.3 hPa WNW 20.4 km/h 20.4 km/h 48% 0 mm 0.0 W/m2 FEW
06:15 4.7 °C -5.7 °C 1002.3 hPa WNW 22.2 km/h 22.2 km/h 47% 0 mm 0.0 W/m2 FEW
06:20 4.7 °C -5.7 °C 1002.3 hPa WNW 22.2 km/h 22.2 km/h 47% 0 mm 0.0 W/m2 FEW
06:24 4.7 °C -5.7 °C 1002.3 hPa NW 22.2 km/h 22.2 km/h 47% 0 mm 0.0 W/m2 FEW
06:30 4.8 °C -5.6 °C 1002.6 hPa WNW 24.1 km/h 24.1 km/h 47% 0 mm 0.0 W/m2 FEW
06:36 4.8 °C -5.9 °C 1002.6 hPa West 25.9 km/h 25.9 km/h 46% 0 mm 0.0 W/m2 FEW
06:37 4.8 °C -5.6 °C 1002.6 hPa NW 25.9 km/h 25.9 km/h 47% 0 mm 0.0 W/m2 FEW
06:42 4.8 °C -5.9 °C 1002.9 hPa West 25.9 km/h 25.9 km/h 46% 0 mm 0.0 W/m2 FEW
06:44 4.8 °C -5.9 °C 1002.6 hPa WNW 20.4 km/h 20.4 km/h 46% 0 mm 0.0 W/m2 FEW
06:49 4.8 °C -5.6 °C 1002.9 hPa WNW 20.4 km/h 20.4 km/h 47% 0 mm 0.0 W/m2 FEW
06:50 4.8 °C -5.9 °C 1002.9 hPa WNW 20.4 km/h 20.4 km/h 46% 0 mm 0.0 W/m2 FEW
06:53 4.7 °C -5.7 °C 1002.9 hPa WNW 20.4 km/h 20.4 km/h 47% 0 mm 0.0 W/m2 FEW
06:59 4.7 °C -5.7 °C 1002.9 hPa West 20.4 km/h 20.4 km/h 47% 0 mm 0.0 W/m2 FEW
07:01 4.7 °C -5.7 °C 1002.9 hPa West 20.4 km/h 20.4 km/h 47% 0 mm 0.0 W/m2 FEW
07:04 4.6 °C -5.8 °C 1003.3 hPa West 24.1 km/h 24.1 km/h 47% 0 mm 0.0 W/m2 FEW
07:07 4.6 °C -5.8 °C 1003.3 hPa West 24.1 km/h 24.1 km/h 47% 0 mm 0.0 W/m2 FEW
07:08 4.6 °C -6.1 °C 1003.3 hPa WNW 25.9 km/h 25.9 km/h 46% 0 mm 0.0 W/m2 FEW
07:13 4.6 °C -6.1 °C 1003.3 hPa WNW 25.9 km/h 25.9 km/h 46% 0 mm 0.0 W/m2 FEW
07:16 4.6 °C -6.1 °C 1003.3 hPa West 25.9 km/h 25.9 km/h 46% 0 mm 0.0 W/m2 FEW
07:21 4.7 °C -6 °C 1003.6 hPa WNW 27.8 km/h 27.8 km/h 46% 0 mm 0.0 W/m2 FEW
07:24 4.7 °C -6 °C 1003.6 hPa West 27.8 km/h 27.8 km/h 46% 0 mm 0.0 W/m2 FEW
07:26 4.7 °C -6 °C 1003.6 hPa West 27.8 km/h 27.8 km/h 46% 0 mm 0.0 W/m2 FEW
07:29 4.7 °C -6 °C 1003.6 hPa WNW 27.8 km/h 27.8 km/h 46% 0 mm 0.0 W/m2 FEW
07:34 4.7 °C -6 °C 1003.6 hPa WNW 22.2 km/h 22.2 km/h 46% 0 mm 0.0 W/m2 FEW
07:35 4.7 °C -6 °C 1003.6 hPa WNW 22.2 km/h 22.2 km/h 46% 0 mm 0.0 W/m2 FEW
07:40 4.7 °C -6.2 °C 1003.6 hPa WNW 22.2 km/h 22.2 km/h 45% 0 mm 0.0 W/m2 FEW
07:42 4.7 °C -6.2 °C 1003.6 hPa WNW 22.2 km/h 22.2 km/h 45% 0 mm 0.0 W/m2 FEW
07:48 4.8 °C -6.4 °C 1003.6 hPa West 22.2 km/h 22.2 km/h 44% 0 mm 0.0 W/m2 FEW
07:50 4.8 °C -6.4 °C 1003.9 hPa WNW 22.2 km/h 22.2 km/h 44% 0 mm 0.0 W/m2 FEW
07:59 4.9 °C -6.4 °C 1003.9 hPa West 22.2 km/h 22.2 km/h 44% 0 mm 0.0 W/m2 FEW
08:04 4.9 °C -6.4 °C 1003.9 hPa West 22.2 km/h 22.2 km/h 44% 0 mm 5.0 W/m2 FEW
08:07 4.8 °C -6.1 °C 1003.9 hPa West 22.2 km/h 22.2 km/h 45% 0 mm 7.0 W/m2 OVC
08:12 4.8 °C -6.2 °C 1004.3 hPa WNW 20.4 km/h 20.4 km/h 45% 0 mm 9.0 W/m2 CLR
08:14 4.7 °C -6.2 °C 1004.3 hPa WNW 20.4 km/h 20.4 km/h 45% 0 mm 11.0 W/m2 CLR
08:19 4.7 °C -6.3 °C 1004.3 hPa WNW 18.5 km/h 18.5 km/h 45% 0 mm 11.0 W/m2 FEW
08:22 4.7 °C -6.6 °C 1004.3 hPa West 18.5 km/h 18.5 km/h 44% 0 mm 12.0 W/m2 SCT
08:27 4.7 °C -6.5 °C 1004.3 hPa WNW 20.4 km/h 20.4 km/h 44% 0 mm 12.0 W/m2 BKN
08:32 4.8 °C -6.4 °C 1004.6 hPa WNW 20.4 km/h 20.4 km/h 44% 0 mm 21.0 W/m2 SCT
08:33 4.8 °C -6.4 °C 1004.6 hPa West 20.4 km/h 20.4 km/h 44% 0 mm 21.0 W/m2 SCT
08:36 5 °C -6.6 °C 1004.6 hPa WNW 20.4 km/h 20.4 km/h 43% 0 mm 30.0 W/m2 FEW
08:39 5.1 °C -6.5 °C 1004.6 hPa WNW 20.4 km/h 20.4 km/h 43% 0 mm 39.0 W/m2 FEW
08:44 5.1 °C -6.4 °C 1005 hPa WNW 18.5 km/h 18.5 km/h 43% 0 mm 47.0 W/m2 FEW
08:48 5.2 °C -6.4 °C 1005 hPa WNW 20.4 km/h 20.4 km/h 43% 0 mm 54.0 W/m2 CLR
08:53 5.1 °C -6.2 °C 1005 hPa WNW 20.4 km/h 20.4 km/h 44% 0 mm 39.0 W/m2 SCT
08:58 5.3 °C -6.3 °C 1005 hPa WNW 20.4 km/h 20.4 km/h 43% 0 mm 46.0 W/m2 SCT
08:59 5.4 °C -6.2 °C 1005.3 hPa WNW 20.4 km/h 20.4 km/h 43% 0 mm 49.0 W/m2 SCT
09:05 5.7 °C -6.2 °C 1005.3 hPa WNW 18.5 km/h 18.5 km/h 42% 0 mm 93.0 W/m2 FEW
09:07 5.8 °C -6.1 °C 1005.3 hPa WNW 18.5 km/h 18.5 km/h 42% 0 mm 102.0 W/m2 FEW
09:12 5.8 °C -6.1 °C 1005.3 hPa NW 18.5 km/h 18.5 km/h 42% 0 mm 113.0 W/m2 CLR
09:15 5.9 °C -5.7 °C 1005.3 hPa West 18.5 km/h 18.5 km/h 43% 0 mm 128.0 W/m2 CLR
09:20 6.1 °C -6.2 °C 1005.6 hPa WNW 18.5 km/h 18.5 km/h 41% 0 mm 144.0 W/m2 CLR
09:26 5.9 °C -6 °C 1005.6 hPa West 18.5 km/h 18.5 km/h 42% 0 mm 160.0 W/m2 CLR
09:28 5.9 °C -6.1 °C 1005.6 hPa WNW 18.5 km/h 18.5 km/h 42% 0 mm 163.0 W/m2 CLR
09:31 5.9 °C -5.4 °C 1005.6 hPa West 18.5 km/h 18.5 km/h 44% 0 mm 172.0 W/m2 CLR
09:36 5.9 °C -5.4 °C 1006 hPa WNW 18.5 km/h 18.5 km/h 44% 0 mm 188.0 W/m2 CLR
09:37 5.9 °C -5.7 °C 1006 hPa WNW 22.2 km/h 22.2 km/h 43% 0 mm 193.0 W/m2 CLR
09:42 6.4 °C -5.9 °C 1006.3 hPa WNW 22.2 km/h 22.2 km/h 41% 0 mm 204.0 W/m2 CLR
09:46 6.4 °C -5.6 °C 1006.3 hPa West 22.2 km/h 22.2 km/h 42% 0 mm 216.0 W/m2 CLR
09:51 6.6 °C -5.8 °C 1006.3 hPa WNW 18.5 km/h 18.5 km/h 41% 0 mm 214.0 W/m2 CLR
09:52 6.6 °C -5.8 °C 1006.3 hPa WNW 18.5 km/h 18.5 km/h 41% 0 mm 214.0 W/m2 CLR
09:53 6.6 °C -6.1 °C 1006.3 hPa WNW 18.5 km/h 18.5 km/h 40% 0 mm 207.0 W/m2 CLR
09:58 6.7 °C -6 °C 1006.7 hPa WNW 18.5 km/h 18.5 km/h 40% 0 mm 204.0 W/m2 CLR
09:59 6.7 °C -6 °C 1006.3 hPa WNW 18.5 km/h 18.5 km/h 40% 0 mm 200.0 W/m2 CLR
10:04 6.6 °C -5.7 °C 1006.7 hPa West 18.5 km/h 18.5 km/h 41% 0 mm 199.0 W/m2 CLR
10:06 6.6 °C -5.7 °C 1006.7 hPa West 18.5 km/h 18.5 km/h 41% 0 mm 211.0 W/m2 CLR
10:11 6.4 °C -5.6 °C 1006.7 hPa West 18.5 km/h 18.5 km/h 42% 0 mm 241.0 W/m2 CLR
10:14 6.6 °C -5.4 °C 1006.7 hPa West 18.5 km/h 18.5 km/h 42% 0 mm 230.0 W/m2 CLR
10:16 6.7 °C -5.7 °C 1006.7 hPa WNW 18.5 km/h 18.5 km/h 41% 0 mm 181.0 W/m2 CLR
10:21 6.6 °C -5.4 °C 1007 hPa WNW 18.5 km/h 18.5 km/h 42% 0 mm 149.0 W/m2 CLR
10:26 6.5 °C -5.5 °C 1007 hPa WNW 18.5 km/h 18.5 km/h 42% 0 mm 134.0 W/m2 FEW
10:31 6.4 °C -5.3 °C 1007 hPa West 14.8 km/h 14.8 km/h 43% 0 mm 163.0 W/m2 SCT
10:34 6.4 °C -5.3 °C 1007 hPa West 16.7 km/h 16.7 km/h 43% 0 mm 134.0 W/m2 SCT
10:38 6.4 °C -5 °C 1007 hPa WNW 16.7 km/h 16.7 km/h 44% 0 mm 190.0 W/m2 SCT
10:43 6.5 °C -4.9 °C 1007.3 hPa WNW 14.8 km/h 14.8 km/h 44% 0 mm 160.0 W/m2 SCT
10:48 6.7 °C -5 °C 1007.3 hPa WNW 16.7 km/h 16.7 km/h 43% 0 mm 181.0 W/m2 SCT
10:51 6.7 °C -5 °C 1007.3 hPa WNW 16.7 km/h 16.7 km/h 43% 0 mm 227.0 W/m2 FEW
10:56 6.9 °C -4.8 °C 1007.3 hPa WNW 16.7 km/h 16.7 km/h 43% 0 mm 258.0 W/m2 FEW
10:57 7.1 °C -4.7 °C 1007.3 hPa WNW 16.7 km/h 16.7 km/h 43% 0 mm 279.0 W/m2 CLR
10:58 7.1 °C -4.9 °C 1007.3 hPa WNW 16.7 km/h 16.7 km/h 42% 0 mm 287.0 W/m2 CLR
11:03 7.3 °C -5.1 °C 1007.3 hPa WNW 16.7 km/h 16.7 km/h 41% 0 mm 243.0 W/m2 CLR
11:05 7.3 °C -5.1 °C 1007.3 hPa WNW 16.7 km/h 16.7 km/h 41% 0 mm 243.0 W/m2 CLR
11:07 7.5 °C -5.3 °C 1007.7 hPa WNW 14.8 km/h 14.8 km/h 40% 0 mm 308.0 W/m2 CLR
11:11 7.8 °C -4.9 °C 1007.7 hPa WNW 14.8 km/h 14.8 km/h 40% 0 mm 343.0 W/m2 CLR
11:16 8.1 °C -5.7 °C 1007.7 hPa WNW 14.8 km/h 14.8 km/h 37% 0 mm 339.0 W/m2 CLR
11:17 8.1 °C -5.7 °C 1007.7 hPa WNW 14.8 km/h 14.8 km/h 37% 0 mm 339.0 W/m2 CLR
11:22 8.6 °C -3.7 °C 1007.7 hPa West 14.8 km/h 14.8 km/h 42% 0 mm 378.0 W/m2 CLR
11:27 9.4 °C -2.9 °C 1007.7 hPa WNW 11.1 km/h 11.1 km/h 42% 0 mm 339.0 W/m2 CLR
11:28 9.4 °C -3.6 °C 1007.7 hPa WNW 11.1 km/h 11.1 km/h 40% 0 mm 334.0 W/m2 CLR
11:33 9.4 °C -4.2 °C 1007.7 hPa West 16.7 km/h 16.7 km/h 38% 0 mm 316.0 W/m2 CLR
11:35 9.4 °C -3.8 °C 1007.3 hPa WNW 16.7 km/h 16.7 km/h 39% 0 mm 325.0 W/m2 CLR
11:40 9.6 °C -3.3 °C 1007.7 hPa West 18.5 km/h 18.5 km/h 40% 0 mm 418.0 W/m2 CLR
11:41 9.6 °C -4.1 °C 1007.3 hPa West 18.5 km/h 18.5 km/h 38% 0 mm 418.0 W/m2 CLR
11:46 9.7 °C -4.7 °C 1007.7 hPa West 18.5 km/h 18.5 km/h 36% 0 mm 432.0 W/m2 CLR
11:51 9.8 °C -3.5 °C 1007.3 hPa WNW 18.5 km/h 18.5 km/h 39% 0 mm 438.0 W/m2 CLR
Meteoturbie
Compliments of Weather Underground - 3 mb